Aérodrome :
LOGIN :

S'inscrire | Disclaimer

   EN    FR    IT 

 










Légende :    VFR   VFR Marginal   IFR   IFR Intensif   IFR Très Intensif
Visi : 
Plafond : 
>= 8 km
>= 3000ft
5 à 8 km
1000 à 3000 ft
1500m à 5 km
500 à 1000 ft
800 à 1500m
200 à 500 ft
< 800m
< 200 ft
Symboles :   Orages  Brouillard  Fortes neiges  Fortes précipitations  Vent > 20 kt
SIGMETs :   Divers  Orages  Givrage  Turbulence  Onde Orograph.  Cendres Volcan.







- Altitude de l'aérodrome : 326 ft
- Code IATA : LCG
- Voir les cartes d'approche


LECO - A Coruna

DERNIER METAR :
  • 261530Z 32005KT 250V030 9999 BKN042 14/07 Q1026 NOSIG

METARs EXPIRÉS :
  • 261500Z 27007KT 230V350 9999 SCT043 SCT048 14/06 Q1026 NOSIG
  • 261430Z 26008KT 220V330 9999 SCT044 13/06 Q1027 NOSIG
  • 261400Z 28010KT 220V360 9999 SCT048 13/07 Q1027 NOSIG
  • 261330Z 31008KT 240V030 9999 FEW030 SCT037 13/08 Q1027 NOSIG
  • 261300Z 30008KT 250V360 9999 FEW030 SCT044 13/08 Q1026 NOSIG

TAF TAF LECO
Valide du 26 à 15h jusqu'au 27 à 15h UTC


261400Z 2615/2715 27010KT 9999 SCT040 TX15/2714Z TN07/2624Z
BECMG 2618/2621 20005KT
PROB40
TEMPO 2703/2715 3000 -RADZ BKN010 BKN014
BECMG 2710/2714 36010KT
Pas de NOTAMs connus pour ce terrain.



MET'MAP, la Météo Aéronautique d'un coup d'oeil ! - Copyright ORBIFLY Décembre 2007 - Disclaimer

ORBIFLY MET'MAP TEAM :

Programmation & Développement : Alexandra Zaïnal
Conception & Développement : Baudouin d'Aumeries
Co-Programmation & Développement : Marc-Olivier Méhu
Soutien technique & logistique : Manuel Goepfert

Contact : metmap@orbifly.com




SOURCES & CREDITS :

   NOAA